Time,TemperatureF,DewpointF,PressureIn,WindDirection,WindDirectionDegrees,WindSpeedMPH,WindSpeedGustMPH,Humidity,HourlyPrecipIn,Conditions,Clouds,dailyrainin,SolarRadiationWatts/m^2,SoftwareType,DateUTC
2013-03-06 00:00:00,24.0,19.0,-100.00,ESE,112,4.0,-999.0,80,-99.99,,,-99.99,0.000000,,2013-03-06 05:00:00,
2013-03-06 00:42:00,24.0,19.0,-100.00,ESE,112,4.0,-999.0,80,-99.99,,,-99.99,0.000000,,2013-03-06 05:42:00,
2013-03-06 00:52:00,24.0,19.0,-100.00,ESE,112,4.0,-999.0,80,-99.99,,,-99.99,0.000000,,2013-03-06 05:52:00,
2013-03-06 01:00:00,24.0,19.0,-100.00,SE,135,3.0,-999.0,82,-99.99,,,-99.99,0.000000,,2013-03-06 06:00:00,
2013-03-06 01:32:00,24.0,19.0,-100.00,SE,135,3.0,-999.0,82,-99.99,,,-99.99,0.000000,,2013-03-06 06:32:00,
2013-03-06 01:42:00,24.0,19.0,-100.00,SE,135,3.0,-999.0,82,-99.99,,,-99.99,0.000000,,2013-03-06 06:42:00,
2013-03-06 01:52:00,24.0,19.0,-100.00,SE,135,3.0,-999.0,82,-99.99,,,-99.99,0.000000,,2013-03-06 06:52:00,
2013-03-06 02:00:00,24.0,20.0,-100.00,East,90,4.0,-999.0,83,-99.99,,,-99.99,0.000000,,2013-03-06 07:00:00,
2013-03-06 02:42:00,24.0,20.0,-100.00,East,90,4.0,-999.0,83,-99.99,,,-99.99,0.000000,,2013-03-06 07:42:00,
2013-03-06 02:52:00,24.0,20.0,-100.00,East,90,4.0,-999.0,83,-99.99,,,-99.99,0.000000,,2013-03-06 07:52:00,
2013-03-06 03:00:00,25.0,21.0,-100.00,ESE,112,4.0,-999.0,83,-99.99,,,-99.99,0.000000,,2013-03-06 08:00:00,
2013-03-06 03:42:00,25.0,21.0,-100.00,ESE,112,4.0,-999.0,83,-99.99,,,-99.99,0.000000,,2013-03-06 08:42:00,
2013-03-06 03:52:00,25.0,21.0,-100.00,ESE,112,4.0,-999.0,83,-99.99,,,-99.99,0.000000,,2013-03-06 08:52:00,
2013-03-06 04:00:00,26.0,21.0,-100.00,ESE,112,3.0,-999.0,82,-99.99,,,-99.99,0.000000,,2013-03-06 09:00:00,
2013-03-06 04:42:00,26.0,21.0,-100.00,ESE,112,3.0,-999.0,82,-99.99,,,-99.99,0.000000,,2013-03-06 09:42:00,
2013-03-06 04:52:00,26.0,21.0,-100.00,ESE,112,3.0,-999.0,82,-99.99,,,-99.99,0.000000,,2013-03-06 09:52:00,
2013-03-06 05:00:00,26.0,21.0,-100.00,ESE,112,3.0,-999.0,82,-99.99,,,-99.99,0.000000,,2013-03-06 10:00:00,
2013-03-06 05:42:00,26.0,21.0,-100.00,ESE,112,3.0,-999.0,82,-99.99,,,-99.99,0.000000,,2013-03-06 10:42:00,
2013-03-06 05:52:00,26.0,21.0,-100.00,ESE,112,3.0,-999.0,82,-99.99,,,-99.99,0.000000,,2013-03-06 10:52:00,
2013-03-06 06:00:00,26.0,22.0,-100.00,ESE,112,2.0,-999.0,83,-99.99,,,-99.99,0.000000,,2013-03-06 11:00:00,
2013-03-06 06:43:00,26.0,22.0,-100.00,ESE,112,2.0,-999.0,83,-99.99,,,-99.99,0.000000,,2013-03-06 11:43:00,
2013-03-06 06:52:00,26.0,22.0,-100.00,ESE,112,2.0,-999.0,83,-99.99,,,-99.99,0.000000,,2013-03-06 11:52:00,
2013-03-06 07:00:00,26.0,22.0,-100.00,SE,135,2.0,-999.0,84,-99.99,,,-99.99,0.000000,,2013-03-06 12:00:00,
2013-03-06 07:43:00,26.0,22.0,-100.00,SE,135,2.0,-999.0,84,-99.99,,,-99.99,0.000000,,2013-03-06 12:43:00,
2013-03-06 07:53:00,26.0,22.0,-100.00,SE,135,2.0,-999.0,84,-99.99,,,-99.99,0.000000,,2013-03-06 12:53:00,
2013-03-06 08:00:00,26.0,22.0,-100.00,SSE,157,2.0,-999.0,84,-99.99,,,-99.99,34.799999,,2013-03-06 13:00:00,
2013-03-06 08:42:00,26.0,22.0,-100.00,SSE,157,2.0,-999.0,84,-99.99,,,-99.99,34.799999,,2013-03-06 13:42:00,
2013-03-06 08:52:00,26.0,22.0,-100.00,SSE,157,2.0,-999.0,84,-99.99,,,-99.99,34.799999,,2013-03-06 13:52:00,
2013-03-06 09:00:00,30.0,23.0,-100.00,SSE,157,2.0,-999.0,73,-99.99,,,-99.99,178.639999,,2013-03-06 14:00:00,
2013-03-06 09:42:00,30.0,23.0,-100.00,SSE,157,2.0,-999.0,73,-99.99,,,-99.99,178.639999,,2013-03-06 14:42:00,
2013-03-06 09:53:00,30.0,23.0,-100.00,SSE,157,2.0,-999.0,73,-99.99,,,-99.99,178.639999,,2013-03-06 14:53:00,
2013-03-06 10:00:00,33.0,24.0,-100.00,SSE,157,3.0,-999.0,66,-99.99,,,-99.99,300.440002,,2013-03-06 15:00:00,
2013-03-06 10:42:00,33.0,24.0,-100.00,SSE,157,3.0,-999.0,66,-99.99,,,-99.99,300.440002,,2013-03-06 15:42:00,
2013-03-06 10:52:00,33.0,24.0,-100.00,SSE,157,3.0,-999.0,66,-99.99,,,-99.99,300.440002,,2013-03-06 15:52:00,
2013-03-06 11:00:00,37.0,24.0,-100.00,South,180,3.0,-999.0,59,-99.99,,,-99.99,483.720001,,2013-03-06 16:00:00,
2013-03-06 11:42:00,37.0,24.0,-100.00,South,180,3.0,-999.0,59,-99.99,,,-99.99,483.720001,,2013-03-06 16:42:00,
2013-03-06 11:52:00,37.0,24.0,-100.00,South,180,3.0,-999.0,59,-99.99,,,-99.99,483.720001,,2013-03-06 16:52:00,
2013-03-06 12:00:00,39.0,24.0,-100.00,SE,135,3.0,-999.0,55,-99.99,,,-99.99,541.719971,,2013-03-06 17:00:00,
2013-03-06 12:42:00,39.0,24.0,-100.00,SE,135,3.0,-999.0,55,-99.99,,,-99.99,541.719971,,2013-03-06 17:42:00,
2013-03-06 12:53:00,39.0,24.0,-100.00,SE,135,3.0,-999.0,55,-99.99,,,-99.99,541.719971,,2013-03-06 17:53:00,
2013-03-06 13:00:00,38.0,24.0,-100.00,SSE,157,2.0,-999.0,57,-99.99,,,-99.99,462.839996,,2013-03-06 18:00:00,
2013-03-06 13:42:00,38.0,24.0,-100.00,SSE,157,2.0,-999.0,57,-99.99,,,-99.99,462.839996,,2013-03-06 18:42:00,
2013-03-06 13:53:00,38.0,24.0,-100.00,SSE,157,2.0,-999.0,57,-99.99,,,-99.99,462.839996,,2013-03-06 18:53:00,
2013-03-06 14:00:00,38.0,24.0,-100.00,SSW,202,1.0,-999.0,57,-99.99,,,-99.99,273.760010,,2013-03-06 19:00:00,
2013-03-06 14:43:00,38.0,24.0,-100.00,SSW,202,1.0,-999.0,57,-99.99,,,-99.99,273.760010,,2013-03-06 19:43:00,
2013-03-06 14:53:00,38.0,24.0,-100.00,SSW,202,1.0,-999.0,57,-99.99,,,-99.99,273.760010,,2013-03-06 19:53:00,
2013-03-06 15:00:00,38.0,25.0,-100.00,SW,225,2.0,-999.0,57,-99.99,,,-99.99,170.520004,,2013-03-06 20:00:00,
2013-03-06 15:43:00,38.0,25.0,-100.00,SW,225,2.0,-999.0,57,-99.99,,,-99.99,170.520004,,2013-03-06 20:43:00,
2013-03-06 15:53:00,38.0,25.0,-100.00,SW,225,2.0,-999.0,57,-99.99,,,-99.99,170.520004,,2013-03-06 20:53:00,
2013-03-06 16:00:00,37.0,25.0,-100.00,West,270,4.0,-999.0,61,-99.99,,,-99.99,128.759995,,2013-03-06 21:00:00,
2013-03-06 16:42:00,37.0,25.0,-100.00,West,270,4.0,-999.0,61,-99.99,,,-99.99,128.759995,,2013-03-06 21:42:00,
2013-03-06 16:52:00,37.0,25.0,-100.00,West,270,4.0,-999.0,61,-99.99,,,-99.99,128.759995,,2013-03-06 21:52:00,
2013-03-06 17:00:00,37.0,25.0,-100.00,West,270,3.0,-999.0,61,-99.99,,,-99.99,85.839996,,2013-03-06 22:00:00,
2013-03-06 17:42:00,37.0,25.0,-100.00,West,270,3.0,-999.0,61,-99.99,,,-99.99,85.839996,,2013-03-06 22:42:00,
2013-03-06 17:52:00,37.0,25.0,-100.00,West,270,3.0,-999.0,61,-99.99,,,-99.99,85.839996,,2013-03-06 22:52:00,
2013-03-06 18:00:00,35.0,25.0,-100.00,NW,315,5.0,-999.0,66,-99.99,,,-99.99,32.480000,,2013-03-06 23:00:00,
2013-03-06 18:42:00,35.0,25.0,-100.00,NW,315,5.0,-999.0,66,-99.99,,,-99.99,32.480000,,2013-03-06 23:42:00,
2013-03-06 18:52:00,35.0,25.0,-100.00,NW,315,5.0,-999.0,66,-99.99,,,-99.99,32.480000,,2013-03-06 23:52:00,
2013-03-06 19:00:00,33.0,25.0,-100.00,NW,315,4.0,-999.0,72,-99.99,,,-99.99,9.280000,,2013-03-07 00:00:00,
2013-03-06 19:32:00,33.0,25.0,-100.00,NW,315,4.0,-999.0,72,-99.99,,,-99.99,9.280000,,2013-03-07 00:32:00,
2013-03-06 19:42:00,33.0,25.0,-100.00,NW,315,4.0,-999.0,72,-99.99,,,-99.99,9.280000,,2013-03-07 00:42:00,
2013-03-06 19:52:00,33.0,25.0,-100.00,NW,315,4.0,-999.0,72,-99.99,,,-99.99,9.280000,,2013-03-07 00:52:00,
2013-03-06 20:00:00,32.0,25.0,-100.00,WNW,292,4.0,-999.0,76,-99.99,,,-99.99,0.000000,,2013-03-07 01:00:00,
2013-03-06 20:42:00,32.0,25.0,-100.00,WNW,292,4.0,-999.0,76,-99.99,,,-99.99,0.000000,,2013-03-07 01:42:00,
2013-03-06 20:52:00,32.0,25.0,-100.00,WNW,292,4.0,-999.0,76,-99.99,,,-99.99,0.000000,,2013-03-07 01:52:00,
2013-03-06 21:00:00,32.0,26.0,-100.00,NW,315,3.0,-999.0,79,-99.99,,,-99.99,0.000000,,2013-03-07 02:00:00,
2013-03-06 22:00:00,31.0,26.0,-100.00,WNW,292,1.0,-999.0,80,-99.99,,,-99.99,0.000000,,2013-03-07 03:00:00,
2013-03-06 22:42:00,31.0,26.0,-100.00,WNW,292,1.0,-999.0,80,-99.99,,,-99.99,0.000000,,2013-03-07 03:42:00,
2013-03-06 22:52:00,31.0,26.0,-100.00,WNW,292,1.0,-999.0,80,-99.99,,,-99.99,0.000000,,2013-03-07 03:52:00,
2013-03-06 23:00:00,31.0,26.0,-100.00,WNW,292,1.0,-999.0,81,-99.99,,,-99.99,0.000000,,2013-03-07 04:00:00,
2013-03-06 23:42:00,31.0,26.0,-100.00,WNW,292,1.0,-999.0,81,-99.99,,,-99.99,0.000000,,2013-03-07 04:42:00,
2013-03-06 23:52:00,31.0,26.0,-100.00,WNW,292,1.0,-999.0,81,-99.99,,,-99.99,0.000000,,2013-03-07 04:52:00,